createdAt,value
2018-04-24T00:00:53.601Z,5.60
2018-04-24T00:01:57.824Z,13.07
2018-04-24T00:03:02.192Z,7.27
2018-04-24T00:04:06.505Z,9.40
2018-04-24T00:05:10.808Z,7.13
2018-04-24T00:06:15.035Z,6.77
2018-04-24T00:07:19.241Z,11.70
2018-04-24T00:08:23.457Z,7.83
2018-04-24T00:09:27.649Z,9.17
2018-04-24T00:10:31.897Z,7.53
2018-04-24T00:11:36.105Z,6.03
2018-04-24T00:12:40.292Z,7.73
2018-04-24T00:13:44.503Z,8.50
2018-04-24T00:14:48.743Z,8.97
2018-04-24T00:15:53.342Z,10.00
2018-04-24T00:16:57.549Z,11.83
2018-04-24T00:18:01.767Z,9.30
2018-04-24T00:19:06.012Z,14.03
2018-04-24T00:20:10.270Z,13.93
2018-04-24T00:21:14.546Z,10.63
2018-04-24T00:22:18.757Z,10.53
2018-04-24T00:23:22.956Z,8.27
2018-04-24T00:24:27.166Z,9.53
2018-04-24T00:25:31.449Z,8.30
2018-04-24T00:26:35.846Z,11.30
2018-04-24T00:27:40.084Z,11.90
2018-04-24T00:28:44.284Z,6.47
2018-04-24T00:29:48.587Z,12.70
2018-04-24T00:30:52.994Z,10.13
2018-04-24T00:31:57.304Z,14.47
2018-04-24T00:33:01.545Z,13.20
2018-04-24T00:34:05.755Z,7.23
2018-04-24T00:35:09.962Z,12.23
2018-04-24T00:36:14.185Z,10.63
2018-04-24T00:37:18.389Z,15.77
2018-04-24T00:38:22.601Z,14.97
2018-04-24T00:39:26.816Z,20.67
2018-04-24T00:40:31.101Z,19.23
2018-04-24T00:41:36.090Z,13.50
2018-04-24T00:42:40.296Z,9.97
2018-04-24T00:43:44.588Z,15.33
2018-04-24T00:44:48.862Z,16.00
2018-04-24T00:45:53.252Z,9.93
2018-04-24T00:46:57.416Z,17.47
2018-04-24T00:48:01.632Z,10.77
2018-04-24T00:49:05.825Z,15.63
2018-04-24T00:50:10.228Z,20.10
2018-04-24T00:51:14.751Z,15.87
2018-04-24T00:52:19.160Z,13.80
2018-04-24T00:53:40.461Z,16.03
2018-04-24T00:54:44.667Z,23.07
2018-04-24T00:55:49.080Z,12.90
2018-04-24T00:56:53.509Z,19.03
2018-04-24T00:57:57.783Z,13.27
2018-04-24T00:59:02.003Z,16.00
2018-04-24T01:00:06.969Z,9.40
2018-04-24T01:01:11.362Z,10.80
2018-04-24T01:02:15.898Z,13.40
2018-04-24T01:03:20.113Z,9.20
2018-04-24T01:04:24.331Z,16.53
2018-04-24T01:05:28.618Z,18.10
2018-04-24T01:06:32.934Z,20.00
2018-04-24T01:07:37.370Z,12.60
2018-04-24T01:08:41.592Z,18.07
2018-04-24T01:09:45.891Z,11.40
2018-04-24T01:10:50.098Z,12.00
2018-04-24T01:11:54.409Z,12.93
2018-04-24T01:12:59.136Z,24.10
2018-04-24T01:14:03.349Z,14.97
2018-04-24T01:15:07.639Z,18.80
2018-04-24T01:16:11.877Z,13.53
2018-04-24T01:17:16.118Z,15.50
2018-04-24T01:18:20.356Z,11.10
2018-04-24T01:19:25.549Z,17.33
2018-04-24T01:20:29.757Z,17.40
2018-04-24T01:21:33.960Z,16.30
2018-04-24T01:22:38.174Z,15.47
2018-04-24T01:23:42.400Z,17.17
2018-04-24T01:24:46.779Z,21.37
2018-04-24T01:25:51.092Z,16.00
2018-04-24T01:26:55.302Z,22.40
2018-04-24T01:27:59.606Z,16.77
2018-04-24T01:29:03.922Z,16.07
2018-04-24T01:30:08.155Z,21.57
2018-04-24T01:31:12.375Z,13.83
2018-04-24T01:32:16.767Z,13.43
2018-04-24T01:33:21.002Z,13.80
2018-04-24T01:34:25.707Z,15.20
2018-04-24T01:35:30.000Z,13.90
2018-04-24T01:36:34.218Z,19.57
2018-04-24T01:37:38.538Z,14.20
2018-04-24T01:38:42.757Z,18.37
2018-04-24T01:39:47.010Z,22.20
2018-04-24T01:40:51.218Z,17.90
2018-04-24T01:41:55.415Z,19.77
2018-04-24T01:42:59.612Z,17.00
2018-04-24T01:44:03.995Z,13.23
2018-04-24T01:45:08.506Z,15.10
2018-04-24T01:46:13.488Z,16.10
2018-04-24T01:47:17.850Z,13.73
2018-04-24T01:48:22.086Z,13.57
2018-04-24T01:49:26.686Z,14.93
2018-04-24T01:50:30.884Z,20.23
2018-04-24T01:51:35.864Z,14.43
2018-04-24T01:52:40.136Z,11.40
2018-04-24T01:53:44.656Z,16.90
2018-04-24T01:54:49.084Z,14.50
2018-04-24T01:55:53.296Z,21.10
2018-04-24T01:56:57.506Z,12.30
2018-04-24T01:58:01.722Z,12.10
2018-04-24T01:59:05.985Z,18.50
2018-04-24T02:00:11.470Z,20.43
2018-04-24T02:01:15.667Z,16.37
2018-04-24T02:02:19.948Z,14.87
2018-04-24T02:03:24.968Z,15.50
2018-04-24T02:04:29.170Z,15.67
2018-04-24T02:05:33.647Z,13.33
2018-04-24T02:06:37.854Z,17.57
2018-04-24T02:07:42.041Z,14.63
2018-04-24T02:08:47.022Z,14.67
2018-04-24T02:09:51.297Z,13.43
2018-04-24T02:10:56.293Z,14.27
2018-04-24T02:12:00.489Z,16.90
2018-04-24T02:13:05.680Z,17.73
2018-04-24T02:14:10.392Z,13.43
2018-04-24T02:15:14.688Z,15.87
2018-04-24T02:16:19.847Z,17.00
2018-04-24T02:17:24.065Z,14.17
2018-04-24T02:18:28.284Z,14.93
2018-04-24T02:19:32.791Z,15.33
2018-04-24T02:20:37.002Z,14.60
2018-04-24T02:21:41.210Z,17.00
2018-04-24T02:22:45.396Z,12.47
2018-04-24T02:23:50.401Z,12.43
2018-04-24T02:24:54.626Z,25.93
2018-04-24T02:25:59.605Z,14.83
2018-04-24T02:27:03.810Z,15.37
2018-04-24T02:28:08.554Z,20.10
2018-04-24T02:29:12.755Z,11.63
2018-04-24T02:30:16.968Z,16.07
2018-04-24T02:31:21.160Z,13.43
2018-04-24T02:32:25.383Z,15.63
2018-04-24T02:33:29.676Z,17.73
2018-04-24T02:34:33.975Z,14.10
2018-04-24T02:35:38.250Z,17.13
2018-04-24T02:36:42.458Z,19.33
2018-04-24T02:37:46.662Z,16.47
2018-04-24T02:38:50.861Z,15.00
2018-04-24T02:39:55.074Z,15.20
2018-04-24T02:40:59.333Z,12.53
2018-04-24T02:42:03.541Z,11.40
2018-04-24T02:43:08.503Z,15.10
2018-04-24T02:44:12.706Z,13.37
2018-04-24T02:45:16.938Z,12.60
2018-04-24T02:46:21.490Z,12.17
2018-04-24T02:47:25.699Z,10.83
2018-04-24T02:48:30.054Z,14.50
2018-04-24T02:49:34.365Z,10.57
2018-04-24T02:50:38.579Z,13.00
2018-04-24T02:51:42.792Z,14.33
2018-04-24T02:52:47.099Z,10.67
2018-04-24T02:53:51.307Z,13.43
2018-04-24T02:54:55.705Z,13.10
2018-04-24T02:56:01.291Z,11.40
2018-04-24T02:57:05.688Z,12.30
2018-04-24T02:58:09.986Z,18.83
2018-04-24T02:59:14.941Z,10.13
2018-04-24T03:00:19.161Z,12.57
2018-04-24T03:01:23.374Z,10.93
2018-04-24T03:02:27.747Z,11.10
2018-04-24T03:03:31.950Z,12.97
2018-04-24T03:04:37.319Z,11.17
2018-04-24T03:05:41.525Z,13.40
2018-04-24T03:06:45.749Z,11.73
2018-04-24T03:07:49.956Z,11.87
2018-04-24T03:08:54.201Z,15.47
2018-04-24T03:09:58.447Z,11.07
2018-04-24T03:11:03.461Z,14.47
2018-04-24T03:12:08.595Z,15.30
2018-04-24T03:13:12.862Z,9.63
2018-04-24T03:14:17.086Z,12.07
2018-04-24T03:15:21.459Z,12.93
2018-04-24T03:16:25.648Z,13.70
2018-04-24T03:17:30.662Z,15.97
2018-04-24T03:18:34.911Z,14.37
2018-04-24T03:19:39.140Z,11.90
2018-04-24T03:20:43.336Z,11.63
2018-04-24T03:21:47.644Z,16.17
2018-04-24T03:22:51.827Z,10.80
2018-04-24T03:23:56.288Z,14.97
2018-04-24T03:25:00.609Z,16.23
2018-04-24T03:26:04.821Z,12.90
2018-04-24T03:27:09.033Z,10.50
2018-04-24T03:28:13.260Z,16.00
2018-04-24T03:29:17.486Z,11.53
2018-04-24T03:30:21.672Z,15.23
2018-04-24T03:31:25.960Z,11.03
2018-04-24T03:32:30.277Z,10.10
2018-04-24T03:33:34.571Z,14.67
2018-04-24T03:34:39.014Z,11.10
2018-04-24T03:35:43.273Z,10.10
2018-04-24T03:36:47.631Z,11.10
2018-04-24T03:37:51.922Z,10.33
2018-04-24T03:38:56.876Z,11.23
2018-04-24T03:40:01.286Z,18.10
2018-04-24T03:41:05.495Z,9.10
2018-04-24T03:42:09.789Z,12.67
2018-04-24T03:43:14.741Z,16.13
2018-04-24T03:44:18.950Z,14.50
2018-04-24T03:45:23.191Z,14.33
2018-04-24T03:46:27.388Z,8.07
2018-04-24T03:47:31.624Z,11.90
2018-04-24T03:48:35.835Z,10.13
2018-04-24T03:49:40.078Z,11.10
2018-04-24T03:50:45.108Z,12.43
2018-04-24T03:51:50.142Z,14.40
2018-04-24T03:52:55.091Z,14.93
2018-04-24T03:53:59.379Z,9.07
2018-04-24T03:55:04.384Z,12.63
2018-04-24T03:56:08.749Z,9.93
2018-04-24T03:57:13.150Z,12.00
2018-04-24T03:58:18.096Z,9.37
2018-04-24T03:59:22.392Z,14.47
2018-04-24T04:00:26.668Z,9.20
2018-04-24T04:01:30.916Z,9.47
2018-04-24T04:02:35.160Z,13.03
2018-04-24T04:03:39.383Z,10.33
2018-04-24T04:04:43.581Z,8.97
2018-04-24T04:05:47.814Z,11.67
2018-04-24T04:06:52.342Z,9.67
2018-04-24T04:07:56.541Z,10.20
2018-04-24T04:09:01.541Z,15.27
2018-04-24T04:10:05.764Z,13.00
2018-04-24T04:11:10.002Z,11.70
2018-04-24T04:12:15.086Z,9.60
2018-04-24T04:13:19.520Z,9.70
2018-04-24T04:14:23.722Z,11.23
2018-04-24T04:15:27.935Z,12.63
2018-04-24T04:16:32.234Z,10.10
2018-04-24T04:17:54.184Z,10.40
2018-04-24T04:19:16.408Z,9.47
2018-04-24T04:20:38.441Z,10.97
2018-04-24T04:22:00.482Z,11.80
2018-04-24T04:23:22.354Z,13.63
2018-04-24T04:24:40.927Z,8.43
2018-04-24T04:25:45.138Z,9.37
2018-04-24T04:26:49.363Z,9.50
2018-04-24T04:27:53.560Z,11.40
2018-04-24T04:28:57.941Z,13.47
2018-04-24T04:30:03.312Z,10.90
2018-04-24T04:31:07.551Z,10.17
2018-04-24T04:32:11.943Z,10.90
2018-04-24T04:33:16.220Z,12.73
2018-04-24T04:34:21.916Z,7.80
2018-04-24T04:35:26.420Z,10.73
2018-04-24T04:36:30.604Z,7.93
2018-04-24T04:37:35.588Z,6.63
2018-04-24T04:38:39.805Z,15.13
2018-04-24T04:39:44.179Z,9.43
2018-04-24T04:40:48.594Z,8.10
2018-04-24T04:41:52.836Z,11.73
2018-04-24T04:42:57.081Z,9.30
2018-04-24T04:44:02.087Z,8.93
2018-04-24T04:45:06.331Z,9.93
2018-04-24T04:46:11.419Z,15.23
2018-04-24T04:47:15.582Z,8.63
2018-04-24T04:48:20.544Z,9.07
2018-04-24T04:49:24.764Z,10.90
2018-04-24T04:50:29.144Z,9.07
2018-04-24T04:51:33.384Z,17.07
2018-04-24T04:52:37.600Z,10.27
2018-04-24T04:53:41.887Z,11.57
2018-04-24T04:54:46.203Z,12.90
2018-04-24T04:55:50.415Z,12.30
2018-04-24T04:56:54.604Z,12.67
2018-04-24T04:57:59.653Z,7.57
2018-04-24T04:59:03.862Z,11.03
2018-04-24T05:00:08.067Z,9.53
2018-04-24T05:01:12.317Z,6.50
2018-04-24T05:02:16.538Z,11.77
2018-04-24T05:03:20.755Z,16.33
2018-04-24T05:04:25.305Z,6.50
2018-04-24T05:05:29.640Z,12.77
2018-04-24T05:06:33.827Z,7.73
2018-04-24T05:07:38.975Z,9.30
2018-04-24T05:08:43.218Z,8.43
2018-04-24T05:09:47.607Z,10.50
2018-04-24T05:10:51.805Z,15.50
2018-04-24T05:11:56.133Z,9.73
2018-04-24T05:13:00.368Z,10.40
2018-04-24T05:14:04.606Z,7.80
2018-04-24T05:15:08.826Z,7.73
2018-04-24T05:16:13.041Z,9.13
2018-04-24T05:17:18.014Z,11.53
2018-04-24T05:18:22.301Z,12.13
2018-04-24T05:19:26.506Z,6.77
2018-04-24T05:20:31.621Z,12.50
2018-04-24T05:21:35.827Z,7.10
2018-04-24T05:22:40.019Z,7.67
2018-04-24T05:23:44.228Z,8.30
2018-04-24T05:24:48.439Z,7.23
2018-04-24T05:25:52.706Z,8.10
2018-04-24T05:26:57.021Z,12.80
2018-04-24T05:28:01.578Z,11.90
2018-04-24T05:29:05.784Z,8.20
2018-04-24T05:30:10.164Z,12.77
2018-04-24T05:31:14.362Z,8.33
2018-04-24T05:32:18.561Z,6.73
2018-04-24T05:33:22.781Z,7.30
2018-04-24T05:34:26.983Z,9.27
2018-04-24T05:35:32.029Z,9.50
2018-04-24T05:36:37.064Z,8.40
2018-04-24T05:37:41.702Z,6.50
2018-04-24T05:38:45.894Z,9.73
2018-04-24T05:39:50.113Z,7.10
2018-04-24T05:40:54.300Z,9.53
2018-04-24T05:41:59.279Z,8.00
2018-04-24T05:43:03.544Z,9.50
2018-04-24T05:44:07.764Z,7.90
2018-04-24T05:45:11.982Z,10.30
2018-04-24T05:46:16.261Z,8.73
2018-04-24T05:47:20.505Z,9.07
2018-04-24T05:48:24.755Z,8.97
2018-04-24T05:49:29.231Z,12.57
2018-04-24T05:50:33.435Z,9.80
2018-04-24T05:51:38.463Z,6.80
2018-04-24T05:52:43.594Z,13.47
2018-04-24T05:53:48.744Z,12.03
2018-04-24T05:54:53.378Z,7.33
2018-04-24T05:55:57.589Z,8.70
2018-04-24T05:57:01.948Z,13.70
2018-04-24T05:58:06.166Z,8.03
2018-04-24T05:59:11.227Z,9.37
2018-04-24T06:00:15.850Z,9.50
2018-04-24T06:01:20.041Z,13.20
2018-04-24T06:02:25.250Z,6.57
2018-04-24T06:03:30.231Z,11.23
2018-04-24T06:04:34.465Z,8.10
2018-04-24T06:05:38.693Z,10.03
2018-04-24T06:06:42.896Z,8.50
2018-04-24T06:07:47.377Z,7.70
2018-04-24T06:08:51.723Z,16.13
2018-04-24T06:09:55.947Z,9.07
2018-04-24T06:11:00.152Z,8.80
2018-04-24T06:12:04.357Z,8.73
2018-04-24T06:13:08.984Z,12.13
2018-04-24T06:14:13.356Z,12.00
2018-04-24T06:15:17.579Z,9.70
2018-04-24T06:16:21.868Z,9.50
2018-04-24T06:17:26.134Z,9.90
2018-04-24T06:18:30.505Z,7.30
2018-04-24T06:19:34.856Z,13.20
2018-04-24T06:20:39.050Z,8.73
2018-04-24T06:21:43.265Z,12.63
2018-04-24T06:22:47.654Z,10.63
2018-04-24T06:23:52.368Z,8.73
2018-04-24T06:24:56.563Z,10.90
2018-04-24T06:26:01.750Z,10.70
2018-04-24T06:27:06.248Z,10.33
2018-04-24T06:28:10.448Z,14.30
2018-04-24T06:29:14.677Z,9.77
2018-04-24T06:30:18.893Z,24.27
2018-04-24T06:31:23.284Z,11.27
2018-04-24T06:32:27.479Z,8.00
2018-04-24T06:33:31.757Z,8.73
2018-04-24T06:34:35.981Z,11.63
2018-04-24T06:35:40.222Z,10.00
2018-04-24T06:36:44.401Z,6.87
2018-04-24T06:37:49.390Z,8.87
2018-04-24T06:38:53.636Z,12.30
2018-04-24T06:39:57.832Z,12.30
2018-04-24T06:41:02.064Z,8.23
2018-04-24T06:42:07.087Z,10.77
2018-04-24T06:43:11.642Z,9.00
2018-04-24T06:44:15.850Z,18.53
2018-04-24T06:45:21.233Z,14.33
2018-04-24T06:46:25.467Z,12.27
2018-04-24T06:47:29.813Z,12.40
2018-04-24T06:48:34.462Z,14.63
2018-04-24T06:49:38.675Z,9.60
2018-04-24T06:50:42.901Z,10.20
2018-04-24T06:51:47.125Z,7.53
2018-04-24T06:52:51.320Z,11.67
2018-04-24T06:53:55.563Z,10.53
2018-04-24T06:55:00.930Z,11.33
2018-04-24T06:56:05.128Z,9.33
2018-04-24T06:57:10.280Z,10.97
2018-04-24T06:58:14.479Z,11.30
2018-04-24T06:59:27.546Z,7.23
2018-04-24T07:00:32.225Z,11.13
2018-04-24T07:01:36.477Z,12.63
2018-04-24T07:02:40.704Z,14.20
2018-04-24T07:03:45.023Z,10.77
2018-04-24T07:04:50.753Z,16.50
2018-04-24T07:05:55.151Z,14.83
2018-04-24T07:06:59.356Z,12.67
2018-04-24T07:08:03.955Z,12.60
2018-04-24T07:09:08.385Z,10.40
2018-04-24T07:10:12.680Z,14.10
2018-04-24T07:11:17.414Z,9.80
2018-04-24T07:12:21.951Z,19.47
2018-04-24T07:13:26.237Z,11.17
2018-04-24T07:14:31.844Z,12.83
2018-04-24T07:15:36.339Z,16.70
2018-04-24T07:16:40.716Z,16.53
2018-04-24T07:17:44.913Z,10.83
2018-04-24T07:18:50.125Z,12.20
2018-04-24T07:19:54.375Z,16.10
2018-04-24T07:20:59.676Z,11.47
2018-04-24T07:22:04.253Z,14.30
2018-04-24T07:23:09.882Z,13.67
2018-04-24T07:24:14.121Z,11.17
2018-04-24T07:25:18.326Z,10.83
2018-04-24T07:26:22.535Z,15.77
2018-04-24T07:27:26.923Z,16.50
2018-04-24T07:28:31.141Z,15.00
2018-04-24T07:29:35.449Z,11.33
2018-04-24T07:30:39.659Z,11.03
2018-04-24T07:31:43.891Z,19.93
2018-04-24T07:32:48.448Z,15.80
2018-04-24T07:33:52.637Z,9.37
2018-04-24T07:34:56.859Z,12.80
2018-04-24T07:36:02.784Z,9.80
2018-04-24T07:37:07.339Z,10.17
2018-04-24T07:38:11.901Z,15.83
2018-04-24T07:39:16.774Z,18.77
2018-04-24T07:40:22.725Z,14.07
2018-04-24T07:41:28.619Z,10.73
2018-04-24T07:42:32.944Z,14.57
2018-04-24T07:43:37.368Z,15.50
2018-04-24T07:44:41.781Z,16.50
2018-04-24T07:45:45.989Z,13.73
2018-04-24T07:46:50.679Z,10.10
2018-04-24T07:47:55.082Z,12.77
2018-04-24T07:49:00.007Z,10.83
2018-04-24T07:50:07.166Z,11.17
2018-04-24T07:51:11.434Z,14.83
2018-04-24T07:52:15.759Z,12.33
2018-04-24T07:53:19.967Z,17.40
2018-04-24T07:54:24.707Z,15.47
2018-04-24T07:55:28.920Z,15.43
2018-04-24T07:56:33.120Z,14.43
2018-04-24T07:57:37.413Z,16.63
2018-04-24T07:58:42.753Z,12.03
2018-04-24T07:59:47.182Z,18.70
2018-04-24T08:00:51.426Z,18.40
2018-04-24T08:01:55.682Z,13.60
2018-04-24T08:03:01.242Z,14.60
2018-04-24T08:04:07.811Z,13.60
2018-04-24T08:05:12.029Z,16.40
2018-04-24T08:06:16.225Z,14.97
2018-04-24T08:07:21.212Z,17.33
2018-04-24T08:08:25.425Z,19.53
2018-04-24T08:09:29.795Z,16.87
2018-04-24T08:10:34.038Z,18.63
2018-04-24T08:11:38.576Z,17.53
2018-04-24T08:12:42.772Z,20.70
2018-04-24T08:13:47.007Z,16.43
2018-04-24T08:14:51.204Z,16.60
2018-04-24T08:15:55.572Z,18.40
2018-04-24T08:16:59.802Z,25.23
2018-04-24T08:18:04.200Z,22.70
2018-04-24T08:19:08.417Z,17.53
2018-04-24T08:20:12.621Z,15.50
2018-04-24T08:21:16.939Z,20.70
2018-04-24T08:24:28.725Z,20.97
2018-04-24T08:25:32.940Z,20.20
2018-04-24T08:26:37.271Z,19.77
2018-04-24T08:27:41.491Z,21.77
2018-04-24T08:28:45.752Z,20.37
2018-04-24T08:29:50.908Z,29.10
2018-04-24T08:30:55.880Z,20.83
2018-04-24T08:32:00.106Z,21.27
2018-04-24T08:33:04.320Z,21.30
2018-04-24T08:34:08.749Z,19.60
2018-04-24T08:35:13.808Z,20.23
2018-04-24T08:36:18.055Z,16.90
2018-04-24T08:37:22.351Z,23.90
2018-04-24T08:38:26.579Z,16.27
2018-04-24T08:39:30.817Z,22.10
2018-04-24T08:40:35.177Z,26.17
2018-04-24T08:41:39.456Z,22.77
2018-04-24T08:42:44.442Z,26.10
2018-04-24T08:43:49.156Z,25.60
2018-04-24T08:44:53.413Z,25.20
2018-04-24T08:45:57.620Z,23.57
2018-04-24T08:47:01.846Z,21.33
2018-04-24T08:48:06.180Z,24.70
2018-04-24T08:49:10.440Z,21.33
2018-04-24T08:50:14.671Z,20.27
2018-04-24T08:51:18.884Z,25.97
2018-04-24T08:52:23.131Z,21.10
2018-04-24T08:53:27.453Z,19.70
2018-04-24T08:54:31.679Z,21.07
2018-04-24T08:55:35.967Z,21.13
2018-04-24T08:56:40.393Z,21.77
2018-04-24T08:57:44.597Z,21.97
2018-04-24T08:58:48.899Z,25.73
2018-04-24T08:59:53.251Z,31.80
2018-04-24T09:00:57.574Z,19.33
2018-04-24T09:02:01.819Z,21.33
2018-04-24T09:03:06.810Z,23.43
2018-04-24T09:04:11.195Z,23.50
2018-04-24T09:05:15.430Z,20.07
2018-04-24T09:06:19.653Z,18.20
2018-04-24T09:07:23.892Z,17.63
2018-04-24T09:08:28.415Z,18.07
2018-04-24T09:09:32.611Z,20.70
2018-04-24T09:10:36.813Z,19.50
2018-04-24T09:11:41.020Z,19.73
2018-04-24T09:12:45.261Z,15.70
2018-04-24T09:13:50.272Z,18.20
2018-04-24T09:14:54.508Z,27.10
2018-04-24T09:15:59.477Z,24.47
2018-04-24T09:17:03.683Z,18.97
2018-04-24T09:18:07.970Z,18.67
2018-04-24T09:19:12.241Z,25.13
2018-04-24T09:20:16.458Z,19.63
2018-04-24T09:21:20.697Z,18.27
2018-04-24T09:22:24.971Z,19.53
2018-04-24T09:23:29.180Z,20.10
2018-04-24T09:24:33.458Z,21.23
2018-04-24T09:25:37.684Z,19.60
2018-04-24T09:26:41.926Z,21.20
2018-04-24T09:27:46.176Z,25.20
2018-04-24T09:28:50.392Z,19.50
2018-04-24T09:30:00.117Z,18.80
2018-04-24T09:31:04.396Z,20.93
2018-04-24T09:32:08.823Z,26.40
2018-04-24T09:33:12.992Z,22.43
2018-04-24T09:34:17.211Z,21.60
2018-04-24T09:35:26.976Z,17.40
2018-04-24T09:36:31.338Z,21.27
2018-04-24T09:37:35.560Z,20.20
2018-04-24T09:38:39.864Z,18.17
2018-04-24T09:39:45.814Z,20.13
2018-04-24T09:40:50.078Z,22.57
2018-04-24T09:41:54.358Z,29.63
2018-04-24T09:42:58.569Z,19.60
2018-04-24T09:44:02.892Z,24.77
2018-04-24T09:45:07.805Z,22.70
2018-04-24T09:46:12.018Z,25.97
2018-04-24T09:47:16.231Z,25.77
2018-04-24T09:48:20.456Z,23.23
2018-04-24T09:49:24.744Z,25.33
2018-04-24T09:50:28.997Z,27.23
2018-04-24T09:51:33.214Z,22.67
2018-04-24T09:52:37.415Z,27.87
2018-04-24T09:53:42.414Z,23.37
2018-04-24T09:54:47.121Z,26.23
2018-04-24T09:55:51.354Z,23.23
2018-04-24T09:56:55.601Z,25.70
2018-04-24T09:57:59.910Z,28.77
2018-04-24T09:59:04.268Z,22.03
2018-04-24T10:00:08.538Z,28.17
2018-04-24T10:01:13.504Z,23.57
2018-04-24T10:02:17.790Z,19.27
2018-04-24T10:03:21.954Z,20.47
2018-04-24T10:04:26.340Z,23.93
2018-04-24T10:05:30.579Z,19.10
2018-04-24T10:06:34.983Z,23.60
2018-04-24T10:07:39.593Z,25.53
2018-04-24T10:08:43.806Z,26.87
2018-04-24T10:09:48.321Z,20.97
2018-04-24T10:10:52.585Z,22.73
2018-04-24T10:11:56.801Z,24.60
2018-04-24T10:13:01.076Z,20.30
2018-04-24T10:14:05.457Z,19.00
2018-04-24T10:15:09.658Z,19.63
2018-04-24T10:16:14.675Z,22.57
2018-04-24T10:17:18.935Z,24.80
2018-04-24T10:18:23.205Z,27.70
2018-04-24T10:19:28.174Z,22.43
2018-04-24T10:20:32.603Z,29.00
2018-04-24T10:21:36.817Z,24.20
2018-04-24T10:22:41.044Z,25.60
2018-04-24T10:23:45.269Z,25.70
2018-04-24T10:24:50.323Z,29.07
2018-04-24T10:25:55.337Z,23.43
2018-04-24T10:27:00.514Z,20.93
2018-04-24T10:28:04.730Z,26.30
2018-04-24T10:29:08.976Z,30.63
2018-04-24T10:30:13.334Z,28.20
2018-04-24T10:31:17.543Z,29.30
2018-04-24T10:32:22.249Z,30.23
2018-04-24T10:33:26.475Z,28.77
2018-04-24T10:34:30.675Z,23.53
2018-04-24T10:35:35.709Z,28.10
2018-04-24T10:36:40.851Z,34.27
2018-04-24T10:37:45.139Z,34.97
2018-04-24T10:38:50.116Z,28.13
2018-04-24T10:39:54.327Z,34.57
2018-04-24T10:40:58.618Z,26.80
2018-04-24T10:42:02.849Z,22.87
2018-04-24T10:43:07.493Z,26.00
2018-04-24T10:44:11.707Z,25.90
2018-04-24T10:45:15.926Z,24.93
2018-04-24T10:46:20.273Z,29.27
2018-04-24T10:47:25.293Z,29.80
2018-04-24T10:48:30.416Z,28.83
2018-04-24T10:49:34.635Z,26.30
2018-04-24T10:50:39.631Z,26.40
2018-04-24T10:51:43.962Z,24.73
2018-04-24T10:52:48.212Z,26.87
2018-04-24T10:53:52.650Z,21.97
2018-04-24T10:54:57.729Z,34.90
2018-04-24T10:56:02.772Z,24.00
2018-04-24T10:57:07.108Z,32.00
2018-04-24T10:58:11.307Z,42.73
2018-04-24T10:59:15.788Z,26.10
2018-04-24T11:00:19.980Z,30.47
2018-04-24T11:01:24.190Z,32.33
2018-04-24T11:02:28.417Z,27.70
2018-04-24T11:03:32.774Z,33.87
2018-04-24T11:04:37.101Z,33.07
2018-04-24T11:05:41.308Z,31.53
2018-04-24T11:06:45.706Z,30.50
2018-04-24T11:07:50.843Z,32.57
2018-04-24T11:08:55.054Z,33.33
2018-04-24T11:09:59.267Z,32.43
2018-04-24T11:11:03.487Z,40.17
2018-04-24T11:12:07.894Z,27.90
2018-04-24T11:13:12.218Z,31.77
2018-04-24T11:14:16.424Z,32.07
2018-04-24T11:15:20.629Z,28.30
2018-04-24T11:16:24.844Z,37.00
2018-04-24T11:17:29.249Z,36.83
2018-04-24T11:18:34.220Z,39.03
2018-04-24T11:19:38.435Z,28.80
2018-04-24T11:20:42.653Z,39.23
2018-04-24T11:21:46.923Z,36.50
2018-04-24T11:22:51.153Z,33.37
2018-04-24T11:23:55.963Z,32.23
2018-04-24T11:25:00.276Z,31.90
2018-04-24T11:26:04.673Z,35.53
2018-04-24T11:27:08.895Z,34.70
2018-04-24T11:28:13.099Z,36.77
2018-04-24T11:29:17.382Z,36.03
2018-04-24T11:30:23.165Z,43.83
2018-04-24T11:31:28.178Z,38.97
2018-04-24T11:32:33.257Z,34.43
2018-04-24T11:33:37.461Z,33.33
2018-04-24T11:34:41.759Z,28.77
2018-04-24T11:35:45.975Z,37.60
2018-04-24T11:36:50.226Z,36.60
2018-04-24T11:37:55.105Z,40.50
2018-04-24T11:38:59.421Z,35.30
2018-04-24T11:40:03.629Z,32.20
2018-04-24T11:41:07.871Z,28.60
2018-04-24T11:42:12.084Z,37.60
2018-04-24T11:43:16.324Z,36.63
2018-04-24T11:44:22.036Z,37.73
2018-04-24T11:45:26.402Z,38.30
2018-04-24T11:46:31.364Z,35.80
2018-04-24T11:47:35.625Z,30.10
2018-04-24T11:48:39.910Z,36.93
2018-04-24T11:49:44.106Z,35.07
2018-04-24T11:50:48.329Z,26.43
2018-04-24T11:51:52.599Z,37.37
2018-04-24T11:52:57.014Z,33.63
2018-04-24T11:54:01.227Z,35.03
2018-04-24T11:55:05.449Z,32.33
2018-04-24T11:56:09.650Z,39.47
2018-04-24T11:57:13.859Z,34.13
2018-04-24T11:58:18.470Z,37.87
2018-04-24T11:59:22.709Z,33.20
2018-04-24T12:00:27.003Z,39.70
2018-04-24T12:01:31.205Z,33.90
2018-04-24T12:02:35.435Z,36.30
2018-04-24T12:03:39.834Z,38.70
2018-04-24T12:04:44.050Z,35.83
2018-04-24T12:05:48.359Z,33.37
2018-04-24T12:06:52.599Z,40.77
2018-04-24T12:07:56.796Z,39.13
2018-04-24T12:09:01.204Z,41.73
2018-04-24T12:10:05.723Z,38.60
2018-04-24T12:11:10.047Z,37.10
2018-04-24T12:12:14.249Z,40.13
2018-04-24T12:13:18.483Z,34.87
2018-04-24T12:14:22.885Z,47.10
2018-04-24T12:15:27.093Z,40.07
2018-04-24T12:16:31.314Z,41.70
2018-04-24T12:17:35.529Z,41.13
2018-04-24T12:18:39.742Z,39.00
2018-04-24T12:19:44.240Z,36.43
2018-04-24T12:20:48.454Z,41.17
2018-04-24T12:21:52.652Z,35.70
2018-04-24T12:22:56.862Z,43.87
2018-04-24T12:24:01.076Z,35.17
2018-04-24T12:25:05.355Z,36.90
2018-04-24T12:26:10.532Z,46.23
2018-04-24T12:27:14.806Z,35.90
2018-04-24T12:28:19.800Z,44.53
2018-04-24T12:29:24.182Z,38.00
2018-04-24T12:30:28.562Z,33.60
2018-04-24T12:31:32.925Z,39.67
2018-04-24T12:32:37.167Z,41.20
2018-04-24T12:33:41.373Z,35.70
2018-04-24T12:34:45.735Z,35.23
2018-04-24T12:35:50.046Z,35.43
2018-04-24T12:36:55.527Z,33.70
2018-04-24T12:37:59.753Z,34.23
2018-04-24T12:39:04.930Z,34.33
2018-04-24T12:40:09.906Z,38.40
2018-04-24T12:41:14.093Z,35.53
2018-04-24T12:42:18.481Z,38.20
2018-04-24T12:43:23.450Z,38.73
2018-04-24T12:44:27.830Z,36.60
2018-04-24T12:45:32.054Z,38.70
2018-04-24T12:46:36.276Z,34.43
2018-04-24T12:47:40.476Z,33.80
2018-04-24T12:48:44.672Z,30.33
2018-04-24T12:49:49.101Z,37.50
2018-04-24T12:50:53.359Z,31.30
2018-04-24T12:51:57.556Z,36.00
2018-04-24T12:53:01.806Z,40.17
2018-04-24T12:54:06.802Z,36.90
2018-04-24T12:55:11.036Z,44.03
2018-04-24T12:56:15.318Z,35.37
2018-04-24T12:57:19.512Z,32.20
2018-04-24T12:58:23.722Z,32.60
2018-04-24T12:59:27.935Z,39.57
2018-04-24T13:00:32.382Z,40.83
2018-04-24T13:01:36.636Z,31.63
2018-04-24T13:02:40.924Z,36.13
2018-04-24T13:03:45.956Z,35.00
2018-04-24T13:04:51.120Z,33.37
2018-04-24T13:05:55.422Z,34.23
2018-04-24T13:06:59.635Z,33.73
2018-04-24T13:08:03.883Z,38.00
2018-04-24T13:09:08.174Z,36.73
2018-04-24T13:10:12.692Z,36.97
2018-04-24T13:11:16.959Z,34.10
2018-04-24T13:12:21.178Z,33.43
2018-04-24T13:13:26.242Z,31.57
2018-04-24T13:14:30.463Z,35.23
2018-04-24T13:15:35.305Z,33.33
2018-04-24T13:16:39.594Z,38.23
2018-04-24T13:17:43.881Z,39.73
2018-04-24T13:18:49.018Z,30.53
2018-04-24T13:19:54.041Z,29.47
2018-04-24T13:20:59.034Z,37.87
2018-04-24T13:22:03.254Z,38.70
2018-04-24T13:23:07.969Z,31.47
2018-04-24T13:24:12.968Z,32.90
2018-04-24T13:25:17.270Z,36.70
2018-04-24T13:26:21.585Z,39.30
2018-04-24T13:27:25.897Z,32.90
2018-04-24T13:28:30.178Z,42.53
2018-04-24T13:29:34.732Z,35.10
2018-04-24T13:30:38.950Z,35.10
2018-04-24T13:31:43.214Z,35.33
2018-04-24T13:32:48.947Z,33.67
2018-04-24T13:33:53.637Z,36.37
2018-04-24T13:34:57.902Z,40.53
2018-04-24T13:36:02.887Z,46.97
2018-04-24T13:37:07.275Z,36.07
2018-04-24T13:38:11.501Z,41.13
2018-04-24T13:39:15.729Z,38.13
2018-04-24T13:40:19.962Z,36.70
2018-04-24T13:41:24.188Z,35.43
2018-04-24T13:42:29.169Z,37.10
2018-04-24T13:43:33.568Z,34.43
2018-04-24T13:44:37.980Z,36.10
2018-04-24T13:45:42.178Z,36.40
2018-04-24T13:46:46.392Z,38.23
2018-04-24T13:47:50.650Z,33.43
2018-04-24T13:48:54.878Z,37.67
2018-04-24T13:50:00.057Z,34.23
2018-04-24T13:51:04.331Z,40.27
2018-04-24T13:52:09.317Z,38.40
2018-04-24T13:53:13.561Z,36.43
2018-04-24T13:54:17.793Z,34.77
2018-04-24T13:55:23.006Z,36.27
2018-04-24T13:56:27.213Z,33.40
2018-04-24T13:57:31.427Z,37.43
2018-04-24T13:58:35.654Z,40.77